Time;durP1;ratioP1;P1;durP2;ratioP2;P2;SDS_P1;SDS_P2;PMS_P1;PMS_P2;Temp;Humidity;BMP_temperature;BMP_pressure;BME280_temperature;BME280_humidity;BME280_pressure;Samples;Min_cycle;Max_cycle;Signal;HPM_P1;HPM_P2
2022/01/30 00:00:07;;;;;;;29.02;7.50;;;;;;;6.59;71.78;102597.53;5092801;28;20032;-67
2022/01/30 00:02:33;;;;;;;32.83;7.47;;;;;;;6.55;71.33;102606.41;5090130;28;20082;-67
2022/01/30 00:05:01;;;;;;;30.25;6.93;;;;;;;6.50;72.03;102614.44;5095246;28;20062;-67
2022/01/30 00:07:27;;;;;;;29.58;7.63;;;;;;;6.48;72.04;102615.34;5109890;28;21178;-67
2022/01/30 00:09:52;;;;;;;29.45;7.03;;;;;;;6.44;71.75;102625.09;5092262;28;20044;-67
2022/01/30 00:12:25;;;;;;;36.88;7.40;;;;;;;6.36;71.94;102617.28;5110233;28;20107;-67
2022/01/30 00:14:54;;;;;;;29.42;6.65;;;;;;;6.43;71.73;102628.63;5090807;28;20035;-67
2022/01/30 00:17:24;;;;;;;29.50;7.32;;;;;;;6.40;71.98;102626.03;5094445;28;20499;-67
2022/01/30 00:19:59;;;;;;;29.65;6.50;;;;;;;6.38;71.92;102638.41;5092555;28;20028;-67
2022/01/30 00:25:03;;;;;;;30.08;7.25;;;;;;;6.37;71.45;102628.72;5093499;28;20108;-67
2022/01/30 00:27:43;;;;;;;33.13;7.38;;;;;;;6.35;71.75;102625.22;5093158;28;20062;-67
2022/01/30 00:30:14;;;;;;;31.73;7.05;;;;;;;6.34;71.21;102639.34;5095034;28;20127;-67
2022/01/30 00:32:39;;;;;;;30.10;7.25;;;;;;;6.31;70.95;102636.75;5095345;28;20036;-67
2022/01/30 00:35:05;;;;;;;35.05;8.27;;;;;;;6.33;71.33;102649.06;5095380;28;20349;-67
2022/01/30 00:37:32;;;;;;;31.52;7.70;;;;;;;6.23;71.31;102644.81;5089765;28;20020;-67
2022/01/30 00:40:00;;;;;;;29.35;6.53;;;;;;;6.22;71.65;102655.41;5094699;28;20457;-67
2022/01/30 00:42:25;;;;;;;26.98;6.93;;;;;;;6.21;71.78;102640.47;5094846;28;20028;-67
2022/01/30 00:44:51;;;;;;;33.03;7.25;;;;;;;6.13;71.76;102643.22;5095287;28;20080;-67
2022/01/30 00:47:19;;;;;;;30.52;7.45;;;;;;;6.14;72.00;102639.66;5092011;28;20047;-67
2022/01/30 00:49:45;;;;;;;29.95;7.65;;;;;;;6.12;72.14;102645.00;5094084;28;20032;-67
2022/01/30 00:52:10;;;;;;;35.30;7.20;;;;;;;6.08;71.84;102639.78;5099392;28;20440;-67
2022/01/30 00:54:37;;;;;;;31.40;7.82;;;;;;;6.07;71.53;102649.47;5098195;28;20030;-67
2022/01/30 00:57:03;;;;;;;33.33;9.38;;;;;;;6.09;72.58;102652.97;5092923;28;20024;-67
2022/01/30 00:59:29;;;;;;;31.58;8.23;;;;;;;6.07;72.33;102652.09;5095502;28;20390;-67
2022/01/30 01:01:57;;;;;;;29.48;7.63;;;;;;;5.98;72.57;102649.59;5094745;28;20455;-67
2022/01/30 01:04:22;;;;;;;33.75;7.60;;;;;;;6.05;72.58;102653.88;5076475;28;20028;-67
2022/01/30 01:06:49;;;;;;;31.05;6.97;;;;;;;6.05;72.41;102658.31;5093539;28;20129;-67
2022/01/30 01:09:17;;;;;;;38.75;8.60;;;;;;;6.03;72.83;102660.97;5094057;28;20153;-67
2022/01/30 01:25:20;;;;;;;29.52;8.20;;;;;;;5.89;73.69;102666.44;5091172;28;20467;-67
2022/01/30 01:27:46;;;;;;;36.45;8.23;;;;;;;5.86;73.52;102670.88;5092062;28;20043;-64
2022/01/30 01:30:12;;;;;;;38.08;7.85;;;;;;;5.87;73.41;102667.34;5094524;28;20028;-67
2022/01/30 01:32:38;;;;;;;27.60;6.53;;;;;;;5.82;74.15;102671.81;5093689;28;20531;-67
2022/01/30 01:35:04;;;;;;;29.15;7.50;;;;;;;5.77;74.05;102663.09;5090474;28;20032;-67
2022/01/30 01:37:29;;;;;;;27.38;7.97;;;;;;;5.80;73.47;102678.91;5094504;28;20097;-67
2022/01/30 01:39:55;;;;;;;31.48;7.72;;;;;;;5.76;74.17;102671.88;5074502;28;20089;-67
2022/01/30 01:42:20;;;;;;;29.88;6.90;;;;;;;5.78;73.24;102676.25;5095052;28;20077;-67
2022/01/30 01:44:49;;;;;;;26.73;6.90;;;;;;;5.79;73.76;102678.00;5099274;28;20395;-67
2022/01/30 01:47:18;;;;;;;35.92;7.57;;;;;;;5.61;73.33;102663.28;5090764;28;20034;-67
2022/01/30 01:49:47;;;;;;;32.55;7.50;;;;;;;5.64;74.08;102675.56;5092410;28;20039;-67
2022/01/30 01:52:23;;;;;;;23.25;6.50;;;;;;;5.66;74.07;102684.34;5089324;28;20040;-67
2022/01/30 01:54:55;;;;;;;28.40;7.15;;;;;;;5.57;73.80;102687.97;5092274;28;20039;-67
2022/01/30 01:57:23;;;;;;;37.40;7.47;;;;;;;5.51;74.14;102690.69;5089934;28;20111;-67
2022/01/30 01:59:49;;;;;;;25.15;7.10;;;;;;;5.47;74.11;102686.31;5091007;28;20028;-67
2022/01/30 02:02:15;;;;;;;28.95;6.68;;;;;;;5.44;74.40;102691.63;5093875;28;20097;-66
2022/01/30 02:04:42;;;;;;;28.98;6.47;;;;;;;5.40;74.57;102690.81;5091292;28;20119;-67
2022/01/30 02:09:52;;;;;;;28.73;6.70;;;;;;;5.37;75.09;102685.56;5094292;28;20030;-67
2022/01/30 02:12:24;;;;;;;30.63;7.40;;;;;;;5.31;75.08;102675.09;5091338;28;20114;-67
2022/01/30 02:25:57;;;;;;;26.33;7.88;;;;;;;5.10;75.68;102655.13;5067296;28;20514;-67
2022/01/30 02:28:22;;;;;;;24.15;6.97;;;;;;;5.08;75.99;102656.88;5075137;28;20167;-66
2022/01/30 02:31:00;;;;;;;29.05;7.22;;;;;;;5.09;75.87;102661.28;5089780;28;20036;-67
2022/01/30 02:33:25;;;;;;;33.28;7.55;;;;;;;5.06;76.36;102671.88;5088908;28;20065;-67
2022/01/30 02:35:51;;;;;;;31.48;7.57;;;;;;;4.99;76.80;102667.53;5087930;28;20526;-67
2022/01/30 02:38:25;;;;;;;32.35;6.93;;;;;;;5.01;76.08;102682.44;5087315;28;20030;-67
2022/01/30 02:40:54;;;;;;;27.77;6.93;;;;;;;4.99;76.42;102678.06;5088143;28;20042;-67
2022/01/30 02:43:24;;;;;;;38.65;7.75;;;;;;;4.95;76.92;102679.00;5088400;28;20020;-67
2022/01/30 02:46:03;;;;;;;;;;;;;;;5.09;76.25;102666.56;5090131;28;20023;-66
2022/01/30 02:48:48;;;;;;;37.10;7.45;;;;;;;4.88;76.84;102670.28;5090283;28;19920;-67
2022/01/30 02:51:18;;;;;;;29.58;7.45;;;;;;;4.91;76.88;102664.09;5090960;28;20035;-67
2022/01/30 02:53:47;;;;;;;;;;;;;;;5.02;76.17;102662.22;5093652;28;20032;-67
2022/01/30 02:56:12;;;;;;;36.08;7.40;;;;;;;4.81;76.99;102667.72;5090005;28;20386;-67
2022/01/30 02:58:38;;;;;;;20.23;6.85;;;;;;;4.80;76.63;102673.91;5092904;28;20049;-67
2022/01/30 03:01:03;;;;;;;28.60;6.93;;;;;;;4.78;77.01;102674.75;5091638;28;20036;-66
2022/01/30 03:03:29;;;;;;;23.85;6.70;;;;;;;4.75;77.58;102681.84;5093508;28;20053;-67
2022/01/30 03:05:54;;;;;;;29.23;6.85;;;;;;;4.74;76.90;102683.59;5089937;28;20032;-67
2022/01/30 03:08:20;;;;;;;36.55;8.52;;;;;;;4.76;77.25;102696.75;5072705;28;20398;-67
2022/01/30 03:10:45;;;;;;;25.90;7.07;;;;;;;4.64;77.22;102688.97;5091646;28;20055;-67
2022/01/30 03:13:11;;;;;;;33.30;7.60;;;;;;;4.70;77.38;102696.81;5089617;28;20040;-67
2022/01/30 03:15:36;;;;;;;35.33;8.00;;;;;;;4.67;77.98;102702.09;5090184;28;20051;-66
2022/01/30 03:18:01;;;;;;;32.45;7.70;;;;;;;4.62;77.81;102703.91;5090296;28;20413;-66
2022/01/30 03:20:28;;;;;;;34.47;8.90;;;;;;;4.65;77.55;102709.19;5091250;28;20036;-67
2022/01/30 03:22:54;;;;;;;30.67;7.30;;;;;;;4.59;77.40;102709.19;5090812;28;20395;-67
2022/01/30 03:25:21;;;;;;;40.08;8.77;;;;;;;4.59;78.01;102704.81;5093767;28;20032;-67
2022/01/30 03:27:54;;;;;;;29.75;7.22;;;;;;;4.62;78.62;102714.44;5090460;28;20036;-67
2022/01/30 03:30:27;;;;;;;37.60;8.43;;;;;;;4.66;78.54;102705.63;5089092;28;20087;-67
2022/01/30 03:32:55;;;;;;;35.08;7.70;;;;;;;4.73;77.99;102717.88;5091511;28;20359;-67
2022/01/30 03:35:21;;;;;;;24.17;7.55;;;;;;;4.70;78.89;102716.13;5093637;28;20032;-67
2022/01/30 03:37:47;;;;;;;40.10;8.48;;;;;;;4.79;78.72;102730.97;5091167;28;20053;-66
2022/01/30 03:40:13;;;;;;;28.73;7.50;;;;;;;4.79;78.59;102723.06;5091836;28;20024;-67
2022/01/30 03:42:39;;;;;;;32.50;7.32;;;;;;;4.92;78.45;102735.28;5090425;28;20028;-67
2022/01/30 03:45:05;;;;;;;31.05;7.45;;;;;;;4.96;78.74;102734.34;5092268;28;20171;-67
2022/01/30 03:47:30;;;;;;;32.65;7.28;;;;;;;5.01;78.91;102744.88;5089656;28;20031;-67
2022/01/30 03:49:58;;;;;;;34.67;7.22;;;;;;;4.99;78.91;102758.06;5093240;28;20036;-67
2022/01/30 03:52:23;;;;;;;37.05;8.20;;;;;;;5.00;79.21;102757.19;5099095;28;20046;-67
2022/01/30 03:54:51;;;;;;;32.88;6.88;;;;;;;5.00;78.31;102749.28;5076558;28;20032;-67
2022/01/30 03:57:16;;;;;;;33.28;7.75;;;;;;;5.01;78.83;102758.06;5093758;28;20491;-67
2022/01/30 03:59:44;;;;;;;28.20;7.65;;;;;;;5.05;78.51;102750.97;5108892;28;20042;-67
2022/01/30 04:02:09;;;;;;;35.67;7.95;;;;;;;5.04;78.53;102762.44;5113086;28;20114;-67
2022/01/30 04:04:35;;;;;;;34.30;8.00;;;;;;;5.07;78.15;102759.75;5114020;28;20163;-67
2022/01/30 04:07:01;;;;;;;28.77;7.03;;;;;;;5.09;78.28;102760.59;5101960;28;20176;-67
2022/01/30 04:09:27;;;;;;;33.05;8.23;;;;;;;5.06;78.42;102761.53;5094644;28;20478;-67
2022/01/30 04:11:54;;;;;;;38.13;8.27;;;;;;;5.10;77.79;102757.09;5096128;28;20031;-67
2022/01/30 04:14:22;;;;;;;35.22;8.07;;;;;;;5.10;78.35;102771.16;5094470;28;20193;-67
2022/01/30 04:16:48;;;;;;;32.45;7.57;;;;;;;5.20;77.75;102775.44;5093434;28;20100;-67
2022/01/30 04:19:13;;;;;;;26.52;7.15;;;;;;;5.10;77.64;102760.59;5092496;28;20438;-67
2022/01/30 04:21:39;;;;;;;37.05;7.10;;;;;;;5.17;78.11;102777.22;5092256;28;20032;-67
2022/01/30 04:24:07;;;;;;;34.00;7.72;;;;;;;5.14;77.51;102759.66;5093287;28;20024;-67
2022/01/30 04:26:33;;;;;;;33.45;7.00;;;;;;;5.23;77.09;102777.16;5099575;28;20020;-67
2022/01/30 04:28:58;;;;;;;32.40;7.47;;;;;;;5.23;77.67;102775.44;5092716;28;20078;-67
2022/01/30 04:31:24;;;;;;;26.83;6.68;;;;;;;5.26;77.24;102778.91;5094671;28;20042;-67
2022/01/30 04:33:51;;;;;;;34.75;7.25;;;;;;;5.24;77.21;102781.59;5094055;28;20039;-67
2022/01/30 04:36:23;;;;;;;29.63;7.10;;;;;;;5.27;77.32;102778.03;5093195;28;20066;-67
2022/01/30 04:39:11;;;;;;;27.67;6.80;;;;;;;5.27;76.34;102776.28;5094000;28;20091;-67
2022/01/30 05:00:30;;;;;;;;;;;;;;;5.44;76.25;102798.09;5092945;28;20046;-67
2022/01/30 05:04:13;;;;;;;28.05;6.68;;;;;;;5.40;76.23;102806.91;5094046;28;19912;-67
2022/01/30 05:06:05;;;;;;;30.70;7.03;;;;;;;5.35;75.98;102806.06;5076222;28;20047;-67
2022/01/30 05:08:31;;;;;;;31.95;7.13;;;;;;;5.24;75.44;102805.31;5092345;28;20035;-66
2022/01/30 05:10:57;;;;;;;29.92;6.40;;;;;;;5.24;76.33;102813.25;5092382;28;20391;-67
2022/01/30 05:13:27;;;;;;;25.70;6.75;;;;;;;5.14;76.40;102808.91;5092944;28;20459;-67
2022/01/30 05:15:53;;;;;;;22.70;6.45;;;;;;;5.10;75.71;102821.25;5094147;28;20020;-67
2022/01/30 05:18:22;;;;;;;27.65;6.53;;;;;;;5.06;76.28;102822.19;5093114;28;20108;-67
2022/01/30 05:20:49;;;;;;;29.83;7.05;;;;;;;5.08;76.61;102828.31;5092595;28;20028;-67
2022/01/30 05:23:16;;;;;;;31.88;7.47;;;;;;;4.99;75.73;102817.84;5092670;28;20035;-66
2022/01/30 05:25:46;;;;;;;26.55;6.50;;;;;;;5.00;75.72;102816.97;5093127;28;20579;-67
2022/01/30 05:28:14;;;;;;;32.65;7.32;;;;;;;4.95;77.02;102818.75;5092425;28;20067;-67
2022/01/30 05:30:40;;;;;;;29.48;6.93;;;;;;;4.89;76.25;102814.41;5093618;28;20078;-67
2022/01/30 05:33:05;;;;;;;31.77;7.38;;;;;;;4.80;76.39;102817.09;5091714;28;20471;-67
2022/01/30 05:35:34;;;;;;;23.73;5.80;;;;;;;4.81;76.50;102823.25;5092527;28;20115;-67
2022/01/30 05:38:01;;;;;;;28.33;6.30;;;;;;;4.80;76.93;102827.66;5092940;28;20115;-67
2022/01/30 05:40:27;;;;;;;29.83;7.38;;;;;;;4.71;76.78;102819.81;5090081;28;20035;-67
2022/01/30 05:42:55;;;;;;;22.83;7.10;;;;;;;4.69;76.78;102826.84;5091163;28;20032;-67
2022/01/30 05:45:30;;;;;;;30.10;7.78;;;;;;;4.71;76.31;102831.22;5091634;28;20467;-67
2022/01/30 05:48:01;;;;;;;25.73;6.53;;;;;;;4.62;76.67;102833.91;5091414;28;20070;-67
2022/01/30 05:50:26;;;;;;;26.15;7.07;;;;;;;4.66;76.58;102834.78;5076188;28;20036;-67
2022/01/30 05:52:52;;;;;;;26.17;5.78;;;;;;;4.60;76.20;102829.53;5094081;28;20039;-66
2022/01/30 05:55:18;;;;;;;30.75;6.55;;;;;;;4.57;75.66;102829.56;5091868;28;20036;-67
2022/01/30 05:57:43;;;;;;;23.05;6.50;;;;;;;4.58;75.80;102839.22;5092984;28;20032;-66
2022/01/30 06:00:13;;;;;;;32.13;6.45;;;;;;;4.60;75.89;102835.69;5092260;28;20039;-67
2022/01/30 06:02:43;;;;;;;22.98;6.80;;;;;;;4.60;76.24;102837.44;5093519;28;20020;-67
2022/01/30 06:05:09;;;;;;;29.50;5.95;;;;;;;4.58;76.20;102842.72;5093051;28;20024;-67
2022/01/30 06:07:37;;;;;;;21.70;6.40;;;;;;;4.55;76.19;102842.72;5092617;28;20024;-67
2022/01/30 06:10:04;;;;;;;28.88;7.07;;;;;;;4.49;75.66;102846.28;5073953;28;20024;-67
2022/01/30 06:12:32;;;;;;;23.65;5.35;;;;;;;4.51;76.51;102846.28;5094453;28;20028;-66
2022/01/30 06:14:57;;;;;;;27.40;6.57;;;;;;;4.46;76.13;102846.28;5074219;28;20027;-67
2022/01/30 06:17:23;;;;;;;22.83;6.10;;;;;;;4.43;76.51;102848.94;5093257;28;20040;-67
2022/01/30 06:19:48;;;;;;;24.98;6.10;;;;;;;4.48;75.71;102852.44;5090305;28;20121;-66
2022/01/30 06:22:14;;;;;;;24.08;6.72;;;;;;;4.40;75.98;102846.31;5092717;28;20161;-67
2022/01/30 06:24:39;;;;;;;27.85;7.18;;;;;;;4.43;76.78;102843.69;5091085;28;20161;-66
2022/01/30 06:27:05;;;;;;;24.20;5.97;;;;;;;4.40;76.04;102837.56;5095257;28;20482;-66
2022/01/30 06:29:33;;;;;;;26.23;6.88;;;;;;;4.46;76.21;102843.66;5092083;28;20051;-67
2022/01/30 06:31:58;;;;;;;25.23;6.68;;;;;;;4.55;75.78;102840.09;5091391;28;20051;-67
2022/01/30 06:34:26;;;;;;;23.58;6.40;;;;;;;4.62;75.52;102840.94;5092118;28;20153;-67
2022/01/30 06:36:51;;;;;;;22.65;5.88;;;;;;;4.61;74.81;102842.69;5092608;28;20032;-66
2022/01/30 06:39:17;;;;;;;21.90;6.10;;;;;;;4.69;75.05;102846.16;5072899;28;20039;-66
2022/01/30 06:41:45;;;;;;;24.08;6.10;;;;;;;4.66;74.48;102838.28;5092792;28;20780;-66
2022/01/30 06:44:13;;;;;;;22.38;5.82;;;;;;;4.80;74.68;102861.06;5090550;28;20031;-67
2022/01/30 06:46:39;;;;;;;18.50;5.60;;;;;;;4.77;74.98;102862.81;5091641;28;20024;-67
2022/01/30 06:49:04;;;;;;;23.73;6.22;;;;;;;4.78;75.17;102864.56;5106387;28;20093;-67
2022/01/30 06:51:30;;;;;;;24.08;5.65;;;;;;;4.76;74.97;102862.81;5092910;28;20043;-67
2022/01/30 06:53:55;;;;;;;21.13;5.57;;;;;;;4.76;75.16;102863.72;5092887;28;20060;-66
2022/01/30 06:56:21;;;;;;;23.33;6.20;;;;;;;4.77;75.77;102873.34;5089361;28;20773;-67
2022/01/30 06:58:46;;;;;;;25.58;6.25;;;;;;;4.73;75.27;102868.97;5091068;28;20080;-66
2022/01/30 07:01:12;;;;;;;24.77;6.30;;;;;;;4.76;75.52;102879.53;5094532;28;20115;-67
2022/01/30 07:03:37;;;;;;;19.08;6.22;;;;;;;4.81;75.35;102873.34;5091144;28;20407;-67
2022/01/30 07:06:03;;;;;;;27.23;6.63;;;;;;;4.63;75.93;102867.28;5072567;28;20035;-67
2022/01/30 07:08:31;;;;;;;27.05;6.38;;;;;;;4.66;75.33;102877.81;5091764;28;20035;-67
2022/01/30 07:10:57;;;;;;;25.45;5.70;;;;;;;4.59;75.63;102878.75;5090524;28;20035;-67
2022/01/30 07:13:22;;;;;;;20.17;5.93;;;;;;;4.64;75.93;102889.25;5092662;28;20590;-66
2022/01/30 07:15:48;;;;;;;26.67;6.43;;;;;;;4.65;76.18;102889.25;5088390;28;20490;-67
2022/01/30 07:18:13;;;;;;;17.05;5.63;;;;;;;4.62;76.20;102891.00;5094766;28;20020;-66
2022/01/30 07:20:39;;;;;;;25.95;6.97;;;;;;;4.61;75.66;102894.53;5090001;28;20031;-67
2022/01/30 07:23:04;;;;;;;24.20;5.18;;;;;;;4.61;75.92;102894.53;5089332;28;20036;-66
2022/01/30 07:25:30;;;;;;;32.67;6.85;;;;;;;4.58;75.63;102900.69;5091420;28;20035;-67
2022/01/30 07:27:56;;;;;;;23.05;6.40;;;;;;;4.58;75.46;102903.31;5090640;28;20444;-67
2022/01/30 07:30:22;;;;;;;19.67;6.55;;;;;;;4.51;75.95;102901.63;5090826;28;20056;-67
2022/01/30 07:32:47;;;;;;;30.17;7.15;;;;;;;4.53;75.73;102899.84;5090112;28;20024;-67
2022/01/30 07:35:13;;;;;;;32.35;6.38;;;;;;;4.52;75.39;102900.72;5089401;28;20558;-67
2022/01/30 07:37:39;;;;;;;24.80;6.82;;;;;;;4.51;75.47;102896.34;5072491;28;20024;-66
2022/01/30 07:40:05;;;;;;;26.30;5.85;;;;;;;4.49;75.46;102906.00;5091417;28;20471;-67
2022/01/30 07:42:32;;;;;;;27.23;6.32;;;;;;;4.49;75.53;102919.19;5091198;28;20105;-66
2022/01/30 07:45:00;;;;;;;26.52;6.47;;;;;;;4.41;75.69;102931.50;5091791;28;20114;-66
2022/01/30 07:47:26;;;;;;;22.50;5.88;;;;;;;4.44;75.73;102928.84;5074214;28;20089;-66
2022/01/30 07:49:56;;;;;;;26.88;6.13;;;;;;;4.43;75.45;102935.88;5091506;28;20028;-67
2022/01/30 07:52:22;;;;;;;26.27;5.68;;;;;;;4.44;76.38;102932.38;5090552;28;20066;-67
2022/01/30 07:54:49;;;;;;;34.13;7.28;;;;;;;4.46;76.13;102932.38;5091731;28;20569;-67
2022/01/30 07:57:17;;;;;;;21.08;5.55;;;;;;;4.48;75.97;102925.34;5087523;28;20119;-67
2022/01/30 07:59:43;;;;;;;23.63;5.95;;;;;;;4.42;75.80;102917.47;5087498;28;20053;-67
2022/01/30 08:02:12;;;;;;;23.08;6.35;;;;;;;4.46;75.83;102924.47;5086197;28;20553;-67
2022/01/30 08:04:38;;;;;;;27.85;6.43;;;;;;;4.46;75.82;102924.47;5087190;28;20417;-66
2022/01/30 08:07:05;;;;;;;25.75;7.15;;;;;;;4.46;75.95;102925.34;5117667;27;20043;-67
2022/01/30 08:09:31;;;;;;;23.48;6.63;;;;;;;4.49;75.58;102930.59;5088646;28;20043;-66
2022/01/30 08:11:56;;;;;;;31.35;6.13;;;;;;;4.46;75.15;102935.00;5086255;28;20040;-66
2022/01/30 08:14:22;;;;;;;23.95;5.95;;;;;;;4.42;75.10;102939.41;5088410;28;20043;-66
2022/01/30 08:16:47;;;;;;;22.13;6.07;;;;;;;4.47;75.67;102944.66;5088614;28;20085;-67
2022/01/30 08:19:16;;;;;;;24.98;6.22;;;;;;;4.45;75.18;102936.75;5088569;28;20047;-66
2022/01/30 08:21:41;;;;;;;21.13;4.82;;;;;;;4.50;74.95;102942.00;5086041;28;20556;-67
2022/01/30 08:24:07;;;;;;;35.80;6.47;;;;;;;4.57;75.13;102937.59;5087829;28;20388;-67
2022/01/30 08:26:32;;;;;;;25.38;5.80;;;;;;;4.61;75.46;102945.47;5089549;28;20078;-67
2022/01/30 08:28:58;;;;;;;32.47;6.43;;;;;;;4.62;74.42;102949.88;5087006;28;20052;-67
2022/01/30 08:31:24;;;;;;;34.05;6.38;;;;;;;4.63;74.55;102951.63;5089671;28;20031;-67
2022/01/30 08:33:50;;;;;;;22.58;6.18;;;;;;;4.67;74.60;102948.06;5088050;28;20039;-66
2022/01/30 08:36:16;;;;;;;23.75;6.63;;;;;;;4.74;75.18;102949.81;5090364;28;20028;-66
2022/01/30 08:38:44;;;;;;;30.77;7.40;;;;;;;4.81;75.40;102949.78;5093700;28;20374;-66
2022/01/30 08:41:10;;;;;;;33.05;7.00;;;;;;;4.90;74.58;102947.97;5101319;28;20040;-66
2022/01/30 08:43:37;;;;;;;21.80;6.50;;;;;;;5.00;73.68;102952.31;5091833;28;20039;-67
2022/01/30 08:46:03;;;;;;;29.38;6.80;;;;;;;5.13;73.30;102949.59;5092111;28;20024;-68
2022/01/30 08:48:31;;;;;;;20.45;5.95;;;;;;;5.25;72.76;102957.44;5091352;28;20031;-67
2022/01/30 08:50:57;;;;;;;29.33;7.13;;;;;;;5.24;72.38;102964.47;5093207;28;20459;-67
2022/01/30 08:53:22;;;;;;;25.17;6.78;;;;;;;5.27;71.71;102958.31;5092515;28;20032;-66
2022/01/30 08:55:48;;;;;;;29.10;6.78;;;;;;;5.34;71.91;102954.72;5125419;27;20028;-67
2022/01/30 08:58:13;;;;;;;27.00;7.32;;;;;;;5.41;72.06;102951.16;5092511;28;20111;-67
2022/01/30 09:00:42;;;;;;;21.40;6.25;;;;;;;5.54;71.66;102956.34;5093348;28;20084;-67
2022/01/30 09:03:07;;;;;;;22.40;6.18;;;;;;;5.53;70.93;102947.56;5092577;28;20024;-67
2022/01/30 09:05:34;;;;;;;28.15;6.97;;;;;;;5.59;71.29;102958.06;5094662;28;20115;-67
2022/01/30 09:08:04;;;;;;;25.38;6.50;;;;;;;5.64;70.46;102961.50;5093942;28;20098;-68
2022/01/30 09:10:34;;;;;;;22.77;6.93;;;;;;;5.63;70.87;102958.91;5093080;28;20059;-67
2022/01/30 09:13:02;;;;;;;27.60;7.28;;;;;;;5.75;69.97;102973.75;5093801;28;20054;-67
2022/01/30 09:15:27;;;;;;;26.67;6.40;;;;;;;5.88;69.55;102975.38;5092042;28;20028;-67
2022/01/30 09:17:57;;;;;;;31.38;7.68;;;;;;;5.92;69.44;102982.41;5094616;28;20063;-67
2022/01/30 09:20:23;;;;;;;23.08;7.75;;;;;;;5.99;69.55;102994.69;5092795;28;20031;-67
2022/01/30 09:22:51;;;;;;;21.95;5.90;;;;;;;6.06;68.88;102988.47;5094721;28;20035;-67
2022/01/30 09:25:17;;;;;;;23.77;6.30;;;;;;;6.12;68.27;103000.75;5091823;28;20027;-67
2022/01/30 09:27:43;;;;;;;24.30;6.68;;;;;;;6.20;68.38;103000.66;5095381;28;20120;-67
2022/01/30 09:30:10;;;;;;;25.38;6.85;;;;;;;6.28;68.34;102985.63;5093142;28;20090;-67
2022/01/30 09:32:36;;;;;;;27.00;6.45;;;;;;;6.51;68.42;102988.00;5094782;28;20020;-67
2022/01/30 09:35:02;;;;;;;28.50;6.97;;;;;;;6.54;66.77;102991.47;5094647;28;20482;-67
2022/01/30 09:37:28;;;;;;;24.20;6.68;;;;;;;6.59;67.42;102994.94;5103832;28;20418;-67
2022/01/30 09:39:53;;;;;;;24.50;7.18;;;;;;;6.66;66.54;103008.09;5112539;28;20031;-68
2022/01/30 09:42:25;;;;;;;31.48;7.50;;;;;;;6.67;66.28;103013.34;5112285;28;20039;-67
2022/01/30 09:44:51;;;;;;;25.38;7.60;;;;;;;6.71;66.74;103014.22;5090714;28;20023;-67
2022/01/30 09:47:18;;;;;;;33.10;7.55;;;;;;;6.66;66.11;103014.25;5090738;28;20105;-67
2022/01/30 09:49:51;;;;;;;23.65;6.63;;;;;;;6.73;65.93;103013.28;5093111;28;20105;-68
2022/01/30 09:52:18;;;;;;;25.48;6.63;;;;;;;6.84;65.53;103018.44;5093773;28;20027;-67
2022/01/30 09:54:45;;;;;;;27.42;6.38;;;;;;;6.93;63.96;103009.53;5091199;28;20040;-67
2022/01/30 09:57:10;;;;;;;32.80;7.45;;;;;;;6.94;63.49;103012.16;5091093;28;20107;-67
2022/01/30 09:59:36;;;;;;;24.55;6.85;;;;;;;7.02;63.81;103012.03;5091513;28;20111;-67
2022/01/30 10:02:07;;;;;;;35.63;7.35;;;;;;;7.09;63.44;103005.78;5107595;28;20036;-67
2022/01/30 10:04:35;;;;;;;30.73;6.90;;;;;;;7.14;62.69;103021.59;5106806;28;20493;-67
2022/01/30 10:07:12;;;;;;;25.73;6.95;;;;;;;7.11;62.73;103016.34;5091504;28;20112;-67
2022/01/30 10:09:44;;;;;;;26.38;6.70;;;;;;;7.26;62.33;103024.97;5091490;28;20116;-67
2022/01/30 10:12:16;;;;;;;31.10;7.68;;;;;;;7.47;62.59;103036.09;5074177;28;20553;-67
2022/01/30 10:15:06;;;;;;;29.48;6.75;;;;;;;7.69;63.33;103040.19;5108369;28;20023;-68
2022/01/30 10:17:39;;;;;;;31.08;6.93;;;;;;;7.74;61.97;103042.78;5091400;28;20038;-68
2022/01/30 10:20:12;;;;;;;26.00;6.22;;;;;;;7.93;61.59;103035.38;5090977;28;20118;-67
2022/01/30 10:22:57;;;;;;;26.20;6.57;;;;;;;8.24;61.30;103043.69;5091519;28;20838;-67
2022/01/30 10:25:35;;;;;;;27.27;6.85;;;;;;;8.49;60.46;103046.78;5088001;28;20034;-68
2022/01/30 10:28:04;;;;;;;26.48;5.75;;;;;;;8.66;59.24;103038.50;5091086;28;20036;-68
2022/01/30 10:30:39;;;;;;;;;;;;;;;8.73;62.63;103037.47;5090664;28;20093;-68
2022/01/30 10:33:05;;;;;;;23.05;5.90;;;;;;;8.89;60.04;103043.38;5085739;28;19920;-68
2022/01/30 10:36:04;;;;;;;28.30;6.35;;;;;;;9.29;59.46;103050.44;5086106;28;20080;-67
2022/01/30 10:38:35;;;;;;;27.33;5.82;;;;;;;9.20;58.13;103040.03;5093045;28;20036;-67
2022/01/30 10:41:11;;;;;;;27.90;5.88;;;;;;;9.39;58.47;103044.03;5092497;28;20393;-68
2022/01/30 10:44:00;;;;;;;23.52;5.75;;;;;;;9.70;56.68;103035.34;5090991;28;20024;-67
2022/01/30 10:46:31;;;;;;;27.55;6.65;;;;;;;9.65;56.66;103038.13;5098124;28;20035;-68
2022/01/30 10:49:00;;;;;;;27.05;6.47;;;;;;;9.83;55.61;103034.16;5106037;28;20055;-67
2022/01/30 10:51:29;;;;;;;25.60;6.75;;;;;;;10.39;55.56;103039.81;5100448;28;20557;-68
2022/01/30 10:54:13;;;;;;;;;;;;;;;10.56;57.21;103038.47;5100564;28;20032;-67
2022/01/30 10:56:40;;;;;;;27.25;5.90;;;;;;;10.24;54.94;103040.19;5090073;28;19916;-68
2022/01/30 10:59:16;;;;;;;20.08;5.30;;;;;;;9.99;55.10;103037.28;5071033;28;20122;-68
2022/01/30 11:01:46;;;;;;;27.20;7.05;;;;;;;9.68;54.82;103043.38;5087851;28;20020;-68
2022/01/30 11:04:24;;;;;;;27.17;5.70;;;;;;;9.65;56.54;103035.47;5093940;28;20063;-68
2022/01/30 11:06:54;;;;;;;24.77;6.07;;;;;;;9.60;55.23;103034.69;5098809;28;20012;-68
2022/01/30 11:09:34;;;;;;;31.30;6.97;;;;;;;9.26;55.15;103027.50;5090171;28;20032;-68
2022/01/30 11:12:03;;;;;;;;;;;;;;;9.24;57.64;103017.84;5093580;28;20073;-68
2022/01/30 11:14:38;;;;;;;27.20;7.53;;;;;;;8.94;55.74;103022.00;5087542;28;19916;-67
2022/01/30 11:17:08;;;;;;;27.38;6.72;;;;;;;8.81;56.67;103014.31;5110602;28;20112;-68
2022/01/30 11:19:39;;;;;;;29.40;6.68;;;;;;;8.73;56.35;103013.59;5095304;28;20032;-67
2022/01/30 11:22:09;;;;;;;27.13;6.50;;;;;;;9.08;56.34;103002.22;5091171;28;20032;-68
2022/01/30 11:24:59;;;;;;;23.13;5.93;;;;;;;9.63;56.18;103008.06;5091059;28;20032;-67
2022/01/30 11:27:24;;;;;;;29.55;6.68;;;;;;;9.63;54.81;103016.03;5091073;28;20143;-68
2022/01/30 11:29:51;;;;;;;25.33;6.38;;;;;;;10.19;53.08;103018.16;5090095;28;20040;-68
2022/01/30 11:32:21;;;;;;;26.90;6.50;;;;;;;10.80;51.98;103000.53;5090790;28;20115;-68
2022/01/30 11:34:50;;;;;;;26.05;6.35;;;;;;;10.67;50.54;103004.44;5091187;28;20020;-68
2022/01/30 11:37:18;;;;;;;24.95;6.38;;;;;;;10.50;51.95;103004.03;5089694;28;20471;-68
2022/01/30 11:39:52;;;;;;;37.03;6.57;;;;;;;10.46;52.15;103009.44;5090972;28;20408;-68
2022/01/30 11:42:25;;;;;;;27.55;6.35;;;;;;;10.45;52.13;103010.38;5089629;28;20169;-68
2022/01/30 11:45:00;;;;;;;29.83;6.65;;;;;;;10.33;52.97;103000.09;5090544;28;20478;-68
2022/01/30 11:47:26;;;;;;;27.65;6.90;;;;;;;10.36;52.16;103000.00;5090527;28;20031;-68
2022/01/30 11:50:01;;;;;;;20.23;5.93;;;;;;;10.14;51.80;103004.97;5090318;28;20387;-68
2022/01/30 11:52:48;;;;;;;20.90;6.10;;;;;;;9.99;53.41;102997.41;5090560;28;20533;-68
2022/01/30 11:55:38;;;;;;;22.45;6.10;;;;;;;10.37;52.68;102991.09;5090110;28;20318;-67
2022/01/30 11:58:04;;;;;;;23.17;5.65;;;;;;;10.93;49.62;102987.72;5090473;28;20305;-68
2022/01/30 12:00:36;;;;;;;24.65;5.60;;;;;;;10.80;48.62;102991.66;5089986;28;20028;-68
2022/01/30 12:03:25;;;;;;;19.98;5.63;;;;;;;10.83;49.35;102994.25;5090243;28;20020;-68
2022/01/30 12:05:52;;;;;;;21.77;6.50;;;;;;;11.27;48.10;102986.69;5090535;28;20052;-68
2022/01/30 12:08:44;;;;;;;19.70;6.03;;;;;;;12.04;49.10;102988.56;5090082;28;20645;-68
2022/01/30 12:11:34;;;;;;;22.20;5.10;;;;;;;12.77;48.22;102981.50;5092498;28;20130;-68
2022/01/30 12:14:10;;;;;;;21.63;5.15;;;;;;;12.37;45.70;102982.09;5093793;28;20032;-68
2022/01/30 12:16:52;;;;;;;22.13;5.15;;;;;;;11.77;46.72;102990.34;5094205;28;20384;-68
2022/01/30 12:19:47;;;;;;;21.45;5.22;;;;;;;11.18;47.41;102985.19;5093828;28;20106;-68
2022/01/30 12:22:15;;;;;;;19.15;4.85;;;;;;;11.23;46.97;102980.56;5074118;28;20047;-68